Buoy 46611

sailwx.info

Track history (hours):
 
Tides and Currents Weather Stations Pressure Air Temp Water Temp Dewpoint Dewpoint Depression Visibility Wind Speed Wind Dir Waves Ship Positions

Drifting buoy 46611

Last reported at 2014-Aug-29 04:00 UTC. Time now 2014-Aug-29 05:31 UTC.
Position N 49°50' W 140°51'.

Barometer 1011.8 mb
Water temperature 15.8 ° C

Date/timePositionNaut miles runAvg speedWind from/ knotsBaromVisibWave heightAir tempDewpointWater temp
2014-Aug-29 04:00N 49°50' W 140°51'0 0.0 1011.8 15.8
2014-Aug-29 02:00N 49°50' W 140°51'1 0.5 1012.3 15.9
2014-Aug-29 01:00N 49°50' W 140°52'1 0.6 1012.6 15.9
2014-Aug-29 00:00N 49°50' W 140°51'1 0.9 1013.1 15.9
2014-Aug-28 23:00N 49°50' W 140°53'0 0.0 1013.3 15.9
2014-Aug-28 22:00N 49°50' W 140°53'1 0.3 1013.8 15.9
2014-Aug-28 20:00N 49°51' W 140°53'1 0.9 1015.2 15.9
2014-Aug-28 19:00N 49°51' W 140°54'1 0.6 1015.6 15.9
2014-Aug-28 18:00N 49°51' W 140°54'1 0.6 1016.2 15.9
2014-Aug-28 16:00N 49°51' W 140°55'0 0.2 1017.3 15.9
2014-Aug-28 14:00N 49°50' W 140°55'1 0.8 1018.3 15.9
2014-Aug-28 13:00N 49°50' W 140°56'0 0.0 1018.9 15.9
2014-Aug-28 12:00N 49°50' W 140°56'1 0.2 1019.4 15.9
2014-Aug-28 07:00N 49°51' W 140°57'0 0.1 1022.4 16.0
2014-Aug-28 06:00N 49°51' W 140°57'0 0.0 1022.8 16.1
2014-Aug-28 05:00N 49°51' W 140°57'0 0.0 1023.1 16.2
2014-Aug-28 04:00N 49°51' W 140°57'1 0.5 1023.3 16.2
2014-Aug-28 02:00N 49°50' W 140°58'0 0.0 1023.9 16.2
2014-Aug-28 01:00N 49°50' W 140°58'1 1.1 1024.0 16.2
2014-Aug-28 00:00N 49°50' W 140°56'1 0.7 1024.4 16.1
2014-Aug-27 23:00N 49°50' W 140°57'1 0.8 1024.7 16.1
2014-Aug-27 22:00N 49°49' W 140°56'1 0.7 1024.9 16.0
2014-Aug-27 21:00N 49°50' W 140°57'0 0.5 1024.9 16.0
2014-Aug-27 20:00N 49°50' W 140°58'1 0.8 1025.0 15.9
2014-Aug-27 19:00N 49°50' W 140°57'0 0.4 1025.0 15.9
2014-Aug-27 18:00N 49°50' W 140°57'0 0.0 1024.9 15.9
2014-Aug-27 17:00N 49°50' W 140°57'1 0.7 1024.6 15.9
2014-Aug-27 16:00N 49°51' W 140°57'0 0.0 1024.3 15.8
2014-Aug-27 15:00N 49°51' W 140°57'1 1.1 1024.1 15.8
2014-Aug-27 14:00N 49°50' W 140°59'0 0.0 1023.9 15.9
2014-Aug-27 13:00N 49°50' W 140°59'1 1.0 1023.6 15.9
2014-Aug-27 12:00N 49°49' W 140°58'0 0.0 1023.6 15.9
2014-Aug-27 11:00N 49°49' W 140°58'1 1.0 1023.5 15.9
2014-Aug-27 10:00N 49°49' W 140°56'0 0.0 1023.3 15.9
2014-Aug-27 09:00N 49°49' W 140°56'1 0.7 1023.2 15.9
2014-Aug-27 07:00N 49°51' W 140°55'0 0.3 1022.9 16.0
2014-Aug-27 06:00N 49°51' W 140°55'2 1.6 1022.8 16.0
2014-Aug-27 05:00N 49°50' W 140°58'1 0.6 1022.7 16.0
2014-Aug-27 04:00N 49°50' W 140°58'1 0.6 1022.4 16.0
2014-Aug-27 03:00N 49°50' W 140°57'1 0.6 1022.1 16.1
2014-Aug-27 02:00N 49°50' W 140°58'0 0.2 1021.9 16.1
2014-Aug-27 01:00N 49°50' W 140°58'1 0.8 1021.9 16.1
2014-Aug-27 00:00N 49°50' W 140°58'1 0.9 1021.8 16.0
2014-Aug-26 23:00N 49°50' W 140°59'0 0.0 1021.9 16.0
2014-Aug-26 22:00N 49°50' W 140°59'1 0.6 1021.6 16.0
2014-Aug-26 21:00N 49°49' W 140°59'0 0.1 1021.4 16.0
2014-Aug-26 20:00N 49°49' W 140°59'1 0.3 1021.4 15.9
2014-Aug-26 17:00N 49°50' W 140°58'0 0.2 1020.4 15.9
2014-Aug-26 16:00N 49°50' W 140°58'0 0.2 1020.3 16.0
2014-Aug-26 15:00N 49°50' W 140°58'1 0.9 1020.2 16.0
2014-Aug-26 14:00N 49°50' W 140°59'1 0.7 1019.7 16.0
2014-Aug-26 13:00N 49°50' W 140°58'0 0.5 1019.5 16.0
2014-Aug-26 12:00N 49°50' W 140°59'1 0.4 1019.8 16.0
2014-Aug-26 10:00N 49°49' W 140°58'0 0.2 1020.2 16.0
2014-Aug-26 08:00N 49°49' W 140°58'1 1.0 1020.2 16.0
2014-Aug-26 07:00N 49°50' W 140°58'1 0.9 1020.3 16.0
2014-Aug-26 06:00N 49°51' W 140°58'1 1.3 1020.4 16.0
2014-Aug-26 05:00N 49°50' W 140°59'1 0.6 1020.6 16.0
2014-Aug-26 04:00N 49°49' W 140°59'3 1.6 1020.7 16.0
2014-Aug-26 02:00N 49°52' W 140°57'3 3.2 1020.6 16.1
2014-Aug-26 01:00N 49°50' W 141°00'1 0.5 1020.8 16.1
2014-Aug-26 00:00N 49°49' W 141°01'0 0.0 1020.8 16.1
2014-Aug-25 23:00N 49°49' W 141°01'1 1.0 1020.8 16.0
2014-Aug-25 22:00N 49°49' W 140°59'0 0.1 1020.6 16.0
2014-Aug-25 19:00N 49°49' W 140°60'1 0.8 1021.0 15.8
2014-Aug-25 18:00N 49°50' W 140°59'0 0.0 1021.1 15.7
2014-Aug-25 17:00N 49°50' W 140°59'0 0.2 1021.1 15.7
2014-Aug-25 16:00N 49°49' W 140°59'1 1.3 1020.9 15.7
2014-Aug-25 15:00N 49°50' W 141°01'0 0.1 1020.6 15.7
2014-Aug-25 14:00N 49°50' W 141°01'1 0.8 1020.0 15.7
2014-Aug-25 13:00N 49°49' W 141°02'0 0.0 1020.2 15.7
2014-Aug-25 12:00N 49°49' W 141°02'1 0.3 1020.2 15.7
2014-Aug-25 07:00N 49°49' W 140°60'1 0.8 1020.8 15.8
2014-Aug-25 06:00N 49°50' W 141°01'1 0.6 1021.1 15.8
2014-Aug-25 04:00N 49°50' W 141°02'0 0.0 1021.3 15.8
2014-Aug-25 03:00N 49°50' W 141°02'1 0.6 1021.9 15.8
2014-Aug-25 02:00N 49°50' W 141°03'0 0.1 1022.4 15.8
2014-Aug-25 01:00N 49°50' W 141°03'1 1.2 1022.6 15.8
2014-Aug-25 00:00N 49°50' W 141°04'1 0.8 1023.0 15.8
2014-Aug-24 23:00N 49°50' W 141°03'1 0.7 1023.5 15.8
2014-Aug-24 22:00N 49°50' W 141°04'1 0.5 1024.0 15.8
2014-Aug-24 21:00N 49°49' W 141°04'2 2.1 1024.2 15.7
2014-Aug-24 20:00N 49°50' W 141°07'2 2.3 1024.7 15.7
2014-Aug-24 19:00N 49°49' W 141°04'1 0.3 1025.2 15.7
2014-Aug-24 16:00N 49°50' W 141°04'0 0.4 1025.8 15.7
2014-Aug-24 15:00N 49°50' W 141°04'1 0.5 1025.9 15.7
2014-Aug-24 12:00N 49°50' W 141°06'1 0.7 1026.4 15.7
2014-Aug-24 11:00N 49°49' W 141°06'0 0.0 1026.8 15.7
2014-Aug-24 08:00N 49°49' W 141°06'0 0.1 1027.3 15.7
2014-Aug-24 07:00N 49°49' W 141°06'0 0.0 1027.7 15.7
2014-Aug-24 06:00N 49°49' W 141°06'1 1.1 1027.9 15.7
2014-Aug-24 05:00N 49°50' W 141°07'1 0.8 1028.0 15.7
2014-Aug-24 04:00N 49°50' W 141°06'1 1.2 1028.0 15.7
2014-Aug-24 03:00N 49°50' W 141°08'0 0.0 1028.2 15.7
2014-Aug-24 02:00N 49°50' W 141°08'0 0.5 1028.2 15.7
2014-Aug-24 01:00N 49°50' W 141°07'1 1.5 1028.6 15.7
2014-Aug-24 00:00N 49°50' W 141°09'1 0.8 1028.6 15.7
2014-Aug-23 23:00N 49°50' W 141°08'1 1.1 1028.8 15.7
2014-Aug-23 22:00N 49°49' W 141°08'0 0.3 1028.4 15.7
2014-Aug-23 21:00N 49°48' W 141°09'1 0.3 1028.5 15.7
2014-Aug-23 19:00N 49°48' W 141°08'0 0.0 1028.2 15.6
2014-Aug-23 18:00N 49°48' W 141°08'1 1.4 1027.9 15.6
2014-Aug-23 17:00N 49°50' W 141°07'0 0.0 1028.0 15.6
2014-Aug-23 16:00N 49°50' W 141°07'1 0.6 1027.8 15.6
2014-Aug-23 15:00N 49°50' W 141°08'1 0.9 1027.6 15.6
2014-Aug-23 14:00N 49°50' W 141°09'0 0.2 1027.7 15.6
2014-Aug-23 13:00N 49°50' W 141°10'1 1.4 1027.4 15.6
2014-Aug-23 12:00N 49°50' W 141°12'2 1.8 1027.2 15.6
2014-Aug-23 11:00N 49°48' W 141°10'1 0.2 1027.5 15.6
2014-Aug-23 07:00N 49°49' W 141°10'0 0.3 1027.5 15.6
2014-Aug-23 06:00N 49°49' W 141°10'0 0.0 1027.4 15.6
2014-Aug-23 05:00N 49°49' W 141°10'0 0.1 1027.4 15.6
2014-Aug-23 04:00N 49°49' W 141°09'2 1.5 1027.2 15.6
2014-Aug-23 03:00N 49°50' W 141°11'0 0.0 1027.0 15.7
2014-Aug-23 02:00N 49°50' W 141°11'1 1.0 1027.3 15.7
2014-Aug-23 01:00N 49°50' W 141°13'0 0.0 1027.4 15.7
2014-Aug-23 00:00N 49°50' W 141°13'1 1.2 1027.7 15.7
2014-Aug-22 23:00N 49°49' W 141°14'0 0.0 1027.9 15.7
2014-Aug-22 21:00N 49°49' W 141°14'1 0.7 1028.3 15.6
2014-Aug-22 20:00N 49°49' W 141°14'0 0.4 1028.4 15.6
2014-Aug-22 19:00N 49°48' W 141°14'0 0.3 1028.3 15.6
2014-Aug-22 18:00N 49°49' W 141°14'1 1.0 1028.4 15.5
2014-Aug-22 17:00N 49°48' W 141°12'0 0.0 1028.0 15.5
2014-Aug-22 16:00N 49°48' W 141°12'1 1.2 1028.2 15.5
2014-Aug-22 15:00N 49°49' W 141°13'0 0.5 1028.0 15.5
2014-Aug-22 14:00N 49°49' W 141°14'1 0.4 1028.1 15.5
2014-Aug-22 11:00N 49°48' W 141°15'0 0.0 1028.5 15.5
2014-Aug-22 08:00N 49°48' W 141°15'0 0.3 1028.3 15.6
2014-Aug-22 07:00N 49°48' W 141°15'0 0.4 1027.8 15.6
2014-Aug-22 06:00N 49°48' W 141°15'0 0.2 1027.8 15.6
2014-Aug-22 04:00N 49°49' W 141°15'0 0.0 1027.1 15.7
2014-Aug-22 03:00N 49°49' W 141°15'0 0.0 1027.0 15.7
2014-Aug-22 02:00N 49°49' W 141°15'1 0.8 1026.9 15.7
2014-Aug-22 01:00N 49°49' W 141°17'0 0.4 1026.9 15.6
2014-Aug-22 00:00N 49°49' W 141°17'0 0.5 1026.7 15.6
2014-Aug-21 23:00N 49°49' W 141°16'1 1.0 1026.3 15.5
2014-Aug-21 22:00N 49°48' W 141°17'1 0.6 1025.8 15.4
2014-Aug-21 21:00N 49°47' W 141°16'0 0.0 1025.4 15.4
2014-Aug-21 20:00N 49°47' W 141°16'1 0.4 1025.0 15.4
2014-Aug-21 18:00N 49°48' W 141°15'0 0.0 1023.5 15.4
2014-Aug-21 16:00N 49°48' W 141°15'1 0.7 1022.4 15.4
2014-Aug-21 14:00N 49°49' W 141°17'1 1.1 1020.8 15.4
2014-Aug-21 13:00N 49°48' W 141°19'0 0.0 1020.3 15.4
2014-Aug-21 12:00N 49°48' W 141°19'1 0.8 1019.8 15.4
2014-Aug-21 11:00N 49°48' W 141°19'0 0.0 1019.1 15.4
2014-Aug-21 10:00N 49°48' W 141°19'2 0.5 1018.9 15.4
2014-Aug-21 06:00N 49°47' W 141°17'1 0.6 1016.8 15.4
2014-Aug-21 05:00N 49°48' W 141°17'1 0.9 1016.3 15.4
2014-Aug-21 04:00N 49°49' W 141°17'0 0.0 1015.7 15.4
2014-Aug-21 03:00N 49°49' W 141°17'0 0.4 1015.5 15.4
2014-Aug-21 02:00N 49°49' W 141°17'1 1.2 1015.6 15.4
2014-Aug-21 01:00N 49°49' W 141°19'0 0.4 1015.4 15.4
2014-Aug-21 00:00N 49°50' W 141°19'1 1.0 1015.6 15.4
2014-Aug-20 23:00N 49°50' W 141°21'1 0.9 1015.7 15.4
2014-Aug-20 22:00N 49°49' W 141°21'0 0.0 1015.6 15.4
2014-Aug-20 21:00N 49°49' W 141°21'1 0.9 1016.0 15.4
2014-Aug-20 20:00N 49°48' W 141°22'0 0.0 1015.8 15.4
2014-Aug-20 19:00N 49°48' W 141°22'1 0.7 1015.7 15.4
2014-Aug-20 17:00N 49°48' W 141°20'0 0.0 1015.5 15.4
2014-Aug-20 16:00N 49°48' W 141°20'2 1.6 1015.4 15.4
2014-Aug-20 15:00N 49°49' W 141°21'2 1.6 1015.0 15.4
2014-Aug-20 14:00N 49°50' W 141°22'0 0.0 1015.0 15.4
2014-Aug-20 13:00N 49°50' W 141°22'2 1.5 1014.7 15.4
2014-Aug-20 12:00N 49°51' W 141°24'1 0.9 1014.7 15.4
2014-Aug-20 11:00N 49°51' W 141°25'1 1.2 1015.0 15.4
2014-Aug-20 10:00N 49°50' W 141°26'4 1.2 1015.1 15.4
2014-Aug-20 07:00N 49°51' W 141°21'2 2.4 1014.6 15.4
2014-Aug-20 06:00N 49°49' W 141°23'0 0.0 1014.5 15.4
2014-Aug-20 05:00N 49°49' W 141°23'0 0.0 1014.5 15.4
2014-Aug-20 04:00N 49°49' W 141°23'0 0.0 1014.4 15.4
2014-Aug-20 03:00N 49°49' W 141°23'1 0.7 1014.8 15.4
2014-Aug-20 01:00N 49°50' W 141°24'0 0.2 1016.1 15.4
2014-Aug-19 23:00N 49°51' W 141°24'2 1.8 1017.0 15.4
2014-Aug-19 22:00N 49°50' W 141°27'3 2.5 1017.2 15.4
2014-Aug-19 21:00N 49°48' W 141°27'0 0.0 1017.8 15.4
2014-Aug-19 20:00N 49°48' W 141°27'0 0.0 1017.8 15.4
2014-Aug-19 19:00N 49°48' W 141°27'0 0.0 1018.2 15.4
2014-Aug-19 18:00N 49°48' W 141°27'1 0.7 1018.4 15.4
2014-Aug-19 16:00N 49°48' W 141°25'0 0.0 1018.7 15.4
2014-Aug-19 15:00N 49°48' W 141°25'2 0.8 1019.4 15.4
2014-Aug-19 13:00N 49°49' W 141°27'1 0.8 1019.5 15.4
2014-Aug-19 12:00N 49°49' W 141°28'0 0.2 1019.5 15.4
2014-Aug-19 10:00N 49°48' W 141°28'0 0.0 1019.9 15.4
2014-Aug-19 08:00N 49°48' W 141°28'1 0.8 1020.1 15.4
2014-Aug-19 07:00N 49°48' W 141°29'0 0.0 1020.1 15.4
2014-Aug-19 06:00N 49°48' W 141°29'1 0.3 1020.1 15.4
2014-Aug-19 04:00N 49°47' W 141°28'   1019.9 15.4
Track history (hours):
 
Tides and Currents Weather Stations Pressure Air Temp Water Temp Dewpoint Dewpoint Depression Visibility Wind Speed Wind Dir Waves Ship Positions

Drifting buoy 46611

Last reported at 2014-Aug-29 04:00 UTC. Time now 2014-Aug-29 05:31 UTC.
Position N 49°50' W 140°51'.

Barometer 1011.8 mb
Water temperature 15.8 ° C

Date/timePositionNaut miles runAvg speedWind from/ knotsBaromVisibWave heightAir tempDewpointWater temp
2014-Aug-29 04:00N 49°50' W 140°51'0 0.0 1011.8 15.8
2014-Aug-29 02:00N 49°50' W 140°51'1 0.5 1012.3 15.9
2014-Aug-29 01:00N 49°50' W 140°52'1 0.6 1012.6 15.9
2014-Aug-29 00:00N 49°50' W 140°51'1 0.9 1013.1 15.9
2014-Aug-28 23:00N 49°50' W 140°53'0 0.0 1013.3 15.9
2014-Aug-28 22:00N 49°50' W 140°53'1 0.3 1013.8 15.9
2014-Aug-28 20:00N 49°51' W 140°53'1 0.9 1015.2 15.9
2014-Aug-28 19:00N 49°51' W 140°54'1 0.6 1015.6 15.9
2014-Aug-28 18:00N 49°51' W 140°54'1 0.6 1016.2 15.9
2014-Aug-28 16:00N 49°51' W 140°55'0 0.2 1017.3 15.9
2014-Aug-28 14:00N 49°50' W 140°55'1 0.8 1018.3 15.9
2014-Aug-28 13:00N 49°50' W 140°56'0 0.0 1018.9 15.9
2014-Aug-28 12:00N 49°50' W 140°56'1 0.2 1019.4 15.9
2014-Aug-28 07:00N 49°51' W 140°57'0 0.1 1022.4 16.0
2014-Aug-28 06:00N 49°51' W 140°57'0 0.0 1022.8 16.1
2014-Aug-28 05:00N 49°51' W 140°57'0 0.0 1023.1 16.2
2014-Aug-28 04:00N 49°51' W 140°57'1 0.5 1023.3 16.2
2014-Aug-28 02:00N 49°50' W 140°58'0 0.0 1023.9 16.2
2014-Aug-28 01:00N 49°50' W 140°58'1 1.1 1024.0 16.2
2014-Aug-28 00:00N 49°50' W 140°56'1 0.7 1024.4 16.1
2014-Aug-27 23:00N 49°50' W 140°57'1 0.8 1024.7 16.1
2014-Aug-27 22:00N 49°49' W 140°56'1 0.7 1024.9 16.0
2014-Aug-27 21:00N 49°50' W 140°57'0 0.5 1024.9 16.0
2014-Aug-27 20:00N 49°50' W 140°58'1 0.8 1025.0 15.9
2014-Aug-27 19:00N 49°50' W 140°57'0 0.4 1025.0 15.9
2014-Aug-27 18:00N 49°50' W 140°57'0 0.0 1024.9 15.9
2014-Aug-27 17:00N 49°50' W 140°57'1 0.7 1024.6 15.9
2014-Aug-27 16:00N 49°51' W 140°57'0 0.0 1024.3 15.8
2014-Aug-27 15:00N 49°51' W 140°57'1 1.1 1024.1 15.8
2014-Aug-27 14:00N 49°50' W 140°59'0 0.0 1023.9 15.9
2014-Aug-27 13:00N 49°50' W 140°59'1 1.0 1023.6 15.9
2014-Aug-27 12:00N 49°49' W 140°58'0 0.0 1023.6 15.9
2014-Aug-27 11:00N 49°49' W 140°58'1 1.0 1023.5 15.9
2014-Aug-27 10:00N 49°49' W 140°56'0 0.0 1023.3 15.9
2014-Aug-27 09:00N 49°49' W 140°56'1 0.7 1023.2 15.9
2014-Aug-27 07:00N 49°51' W 140°55'0 0.3 1022.9 16.0
2014-Aug-27 06:00N 49°51' W 140°55'2 1.6 1022.8 16.0
2014-Aug-27 05:00N 49°50' W 140°58'1 0.6 1022.7 16.0
2014-Aug-27 04:00N 49°50' W 140°58'1 0.6 1022.4 16.0
2014-Aug-27 03:00N 49°50' W 140°57'1 0.6 1022.1 16.1
2014-Aug-27 02:00N 49°50' W 140°58'0 0.2 1021.9 16.1
2014-Aug-27 01:00N 49°50' W 140°58'1 0.8 1021.9 16.1
2014-Aug-27 00:00N 49°50' W 140°58'1 0.9 1021.8 16.0
2014-Aug-26 23:00N 49°50' W 140°59'0 0.0 1021.9 16.0
2014-Aug-26 22:00N 49°50' W 140°59'1 0.6 1021.6 16.0
2014-Aug-26 21:00N 49°49' W 140°59'0 0.1 1021.4 16.0
2014-Aug-26 20:00N 49°49' W 140°59'1 0.3 1021.4 15.9
2014-Aug-26 17:00N 49°50' W 140°58'0 0.2 1020.4 15.9
2014-Aug-26 16:00N 49°50' W 140°58'0 0.2 1020.3 16.0
2014-Aug-26 15:00N 49°50' W 140°58'1 0.9 1020.2 16.0
2014-Aug-26 14:00N 49°50' W 140°59'1 0.7 1019.7 16.0
2014-Aug-26 13:00N 49°50' W 140°58'0 0.5 1019.5 16.0
2014-Aug-26 12:00N 49°50' W 140°59'1 0.4 1019.8 16.0
2014-Aug-26 10:00N 49°49' W 140°58'0 0.2 1020.2 16.0
2014-Aug-26 08:00N 49°49' W 140°58'1 1.0 1020.2 16.0
2014-Aug-26 07:00N 49°50' W 140°58'1 0.9 1020.3 16.0
2014-Aug-26 06:00N 49°51' W 140°58'1 1.3 1020.4 16.0
2014-Aug-26 05:00N 49°50' W 140°59'1 0.6 1020.6 16.0
2014-Aug-26 04:00N 49°49' W 140°59'3 1.6 1020.7 16.0
2014-Aug-26 02:00N 49°52' W 140°57'3 3.2 1020.6 16.1
2014-Aug-26 01:00N 49°50' W 141°00'1 0.5 1020.8 16.1
2014-Aug-26 00:00N 49°49' W 141°01'0 0.0 1020.8 16.1
2014-Aug-25 23:00N 49°49' W 141°01'1 1.0 1020.8 16.0
2014-Aug-25 22:00N 49°49' W 140°59'0 0.1 1020.6 16.0
2014-Aug-25 19:00N 49°49' W 140°60'1 0.8 1021.0 15.8
2014-Aug-25 18:00N 49°50' W 140°59'0 0.0 1021.1 15.7
2014-Aug-25 17:00N 49°50' W 140°59'0 0.2 1021.1 15.7
2014-Aug-25 16:00N 49°49' W 140°59'1 1.3 1020.9 15.7
2014-Aug-25 15:00N 49°50' W 141°01'0 0.1 1020.6 15.7
2014-Aug-25 14:00N 49°50' W 141°01'1 0.8 1020.0 15.7
2014-Aug-25 13:00N 49°49' W 141°02'0 0.0 1020.2 15.7
2014-Aug-25 12:00N 49°49' W 141°02'1 0.3 1020.2 15.7
2014-Aug-25 07:00N 49°49' W 140°60'1 0.8 1020.8 15.8
2014-Aug-25 06:00N 49°50' W 141°01'1 0.6 1021.1 15.8
2014-Aug-25 04:00N 49°50' W 141°02'0 0.0 1021.3 15.8
2014-Aug-25 03:00N 49°50' W 141°02'1 0.6 1021.9 15.8
2014-Aug-25 02:00N 49°50' W 141°03'0 0.1 1022.4 15.8
2014-Aug-25 01:00N 49°50' W 141°03'1 1.2 1022.6 15.8
2014-Aug-25 00:00N 49°50' W 141°04'1 0.8 1023.0 15.8
2014-Aug-24 23:00N 49°50' W 141°03'1 0.7 1023.5 15.8
2014-Aug-24 22:00N 49°50' W 141°04'1 0.5 1024.0 15.8
2014-Aug-24 21:00N 49°49' W 141°04'2 2.1 1024.2 15.7
2014-Aug-24 20:00N 49°50' W 141°07'2 2.3 1024.7 15.7
2014-Aug-24 19:00N 49°49' W 141°04'1 0.3 1025.2 15.7
2014-Aug-24 16:00N 49°50' W 141°04'0 0.4 1025.8 15.7
2014-Aug-24 15:00N 49°50' W 141°04'1 0.5 1025.9 15.7
2014-Aug-24 12:00N 49°50' W 141°06'1 0.7 1026.4 15.7
2014-Aug-24 11:00N 49°49' W 141°06'0 0.0 1026.8 15.7
2014-Aug-24 08:00N 49°49' W 141°06'0 0.1 1027.3 15.7
2014-Aug-24 07:00N 49°49' W 141°06'0 0.0 1027.7 15.7
2014-Aug-24 06:00N 49°49' W 141°06'1 1.1 1027.9 15.7
2014-Aug-24 05:00N 49°50' W 141°07'1 0.8 1028.0 15.7
2014-Aug-24 04:00N 49°50' W 141°06'1 1.2 1028.0 15.7
2014-Aug-24 03:00N 49°50' W 141°08'0 0.0 1028.2 15.7
2014-Aug-24 02:00N 49°50' W 141°08'0 0.5 1028.2 15.7
2014-Aug-24 01:00N 49°50' W 141°07'1 1.5 1028.6 15.7
2014-Aug-24 00:00N 49°50' W 141°09'1 0.8 1028.6 15.7
2014-Aug-23 23:00N 49°50' W 141°08'1 1.1 1028.8 15.7
2014-Aug-23 22:00N 49°49' W 141°08'0 0.3 1028.4 15.7
2014-Aug-23 21:00N 49°48' W 141°09'1 0.3 1028.5 15.7
2014-Aug-23 19:00N 49°48' W 141°08'0 0.0 1028.2 15.6
2014-Aug-23 18:00N 49°48' W 141°08'1 1.4 1027.9 15.6
2014-Aug-23 17:00N 49°50' W 141°07'0 0.0 1028.0 15.6
2014-Aug-23 16:00N 49°50' W 141°07'1 0.6 1027.8 15.6
2014-Aug-23 15:00N 49°50' W 141°08'1 0.9 1027.6 15.6
2014-Aug-23 14:00N 49°50' W 141°09'0 0.2 1027.7 15.6
2014-Aug-23 13:00N 49°50' W 141°10'1 1.4 1027.4 15.6
2014-Aug-23 12:00N 49°50' W 141°12'2 1.8 1027.2 15.6
2014-Aug-23 11:00N 49°48' W 141°10'1 0.2 1027.5 15.6
2014-Aug-23 07:00N 49°49' W 141°10'0 0.3 1027.5 15.6
2014-Aug-23 06:00N 49°49' W 141°10'0 0.0 1027.4 15.6
2014-Aug-23 05:00N 49°49' W 141°10'0 0.1 1027.4 15.6
2014-Aug-23 04:00N 49°49' W 141°09'2 1.5 1027.2 15.6
2014-Aug-23 03:00N 49°50' W 141°11'0 0.0 1027.0 15.7
2014-Aug-23 02:00N 49°50' W 141°11'1 1.0 1027.3 15.7
2014-Aug-23 01:00N 49°50' W 141°13'0 0.0 1027.4 15.7
2014-Aug-23 00:00N 49°50' W 141°13'1 1.2 1027.7 15.7
2014-Aug-22 23:00N 49°49' W 141°14'0 0.0 1027.9 15.7
2014-Aug-22 21:00N 49°49' W 141°14'1 0.7 1028.3 15.6
2014-Aug-22 20:00N 49°49' W 141°14'0 0.4 1028.4 15.6
2014-Aug-22 19:00N 49°48' W 141°14'0 0.3 1028.3 15.6
2014-Aug-22 18:00N 49°49' W 141°14'1 1.0 1028.4 15.5
2014-Aug-22 17:00N 49°48' W 141°12'0 0.0 1028.0 15.5
2014-Aug-22 16:00N 49°48' W 141°12'1 1.2 1028.2 15.5
2014-Aug-22 15:00N 49°49' W 141°13'0 0.5 1028.0 15.5
2014-Aug-22 14:00N 49°49' W 141°14'1 0.4 1028.1 15.5
2014-Aug-22 11:00N 49°48' W 141°15'0 0.0 1028.5 15.5
2014-Aug-22 08:00N 49°48' W 141°15'0 0.3 1028.3 15.6
2014-Aug-22 07:00N 49°48' W 141°15'0 0.4 1027.8 15.6
2014-Aug-22 06:00N 49°48' W 141°15'0 0.2 1027.8 15.6
2014-Aug-22 04:00N 49°49' W 141°15'0 0.0 1027.1 15.7
2014-Aug-22 03:00N 49°49' W 141°15'0 0.0 1027.0 15.7
2014-Aug-22 02:00N 49°49' W 141°15'1 0.8 1026.9 15.7
2014-Aug-22 01:00N 49°49' W 141°17'0 0.4 1026.9 15.6
2014-Aug-22 00:00N 49°49' W 141°17'0 0.5 1026.7 15.6
2014-Aug-21 23:00N 49°49' W 141°16'1 1.0 1026.3 15.5
2014-Aug-21 22:00N 49°48' W 141°17'1 0.6 1025.8 15.4
2014-Aug-21 21:00N 49°47' W 141°16'0 0.0 1025.4 15.4
2014-Aug-21 20:00N 49°47' W 141°16'1 0.4 1025.0 15.4
2014-Aug-21 18:00N 49°48' W 141°15'0 0.0 1023.5 15.4
2014-Aug-21 16:00N 49°48' W 141°15'1 0.7 1022.4 15.4
2014-Aug-21 14:00N 49°49' W 141°17'1 1.1 1020.8 15.4
2014-Aug-21 13:00N 49°48' W 141°19'0 0.0 1020.3 15.4
2014-Aug-21 12:00N 49°48' W 141°19'1 0.8 1019.8 15.4
2014-Aug-21 11:00N 49°48' W 141°19'0 0.0 1019.1 15.4
2014-Aug-21 10:00N 49°48' W 141°19'2 0.5 1018.9 15.4
2014-Aug-21 06:00N 49°47' W 141°17'1 0.6 1016.8 15.4
2014-Aug-21 05:00N 49°48' W 141°17'1 0.9 1016.3 15.4
2014-Aug-21 04:00N 49°49' W 141°17'0 0.0 1015.7 15.4
2014-Aug-21 03:00N 49°49' W 141°17'0 0.4 1015.5 15.4
2014-Aug-21 02:00N 49°49' W 141°17'1 1.2 1015.6 15.4
2014-Aug-21 01:00N 49°49' W 141°19'0 0.4 1015.4 15.4
2014-Aug-21 00:00N 49°50' W 141°19'1 1.0 1015.6 15.4
2014-Aug-20 23:00N 49°50' W 141°21'1 0.9 1015.7 15.4
2014-Aug-20 22:00N 49°49' W 141°21'0 0.0 1015.6 15.4
2014-Aug-20 21:00N 49°49' W 141°21'1 0.9 1016.0 15.4
2014-Aug-20 20:00N 49°48' W 141°22'0 0.0 1015.8 15.4
2014-Aug-20 19:00N 49°48' W 141°22'1 0.7 1015.7 15.4
2014-Aug-20 17:00N 49°48' W 141°20'0 0.0 1015.5 15.4
2014-Aug-20 16:00N 49°48' W 141°20'2 1.6 1015.4 15.4
2014-Aug-20 15:00N 49°49' W 141°21'2 1.6 1015.0 15.4
2014-Aug-20 14:00N 49°50' W 141°22'0 0.0 1015.0 15.4
2014-Aug-20 13:00N 49°50' W 141°22'2 1.5 1014.7 15.4
2014-Aug-20 12:00N 49°51' W 141°24'1 0.9 1014.7 15.4
2014-Aug-20 11:00N 49°51' W 141°25'1 1.2 1015.0 15.4
2014-Aug-20 10:00N 49°50' W 141°26'4 1.2 1015.1 15.4
2014-Aug-20 07:00N 49°51' W 141°21'2 2.4 1014.6 15.4
2014-Aug-20 06:00N 49°49' W 141°23'0 0.0 1014.5 15.4
2014-Aug-20 05:00N 49°49' W 141°23'0 0.0 1014.5 15.4
2014-Aug-20 04:00N 49°49' W 141°23'0 0.0 1014.4 15.4
2014-Aug-20 03:00N 49°49' W 141°23'1 0.7 1014.8 15.4
2014-Aug-20 01:00N 49°50' W 141°24'0 0.2 1016.1 15.4
2014-Aug-19 23:00N 49°51' W 141°24'2 1.8 1017.0 15.4
2014-Aug-19 22:00N 49°50' W 141°27'3 2.5 1017.2 15.4
2014-Aug-19 21:00N 49°48' W 141°27'0 0.0 1017.8 15.4
2014-Aug-19 20:00N 49°48' W 141°27'0 0.0 1017.8 15.4
2014-Aug-19 19:00N 49°48' W 141°27'0 0.0 1018.2 15.4
2014-Aug-19 18:00N 49°48' W 141°27'1 0.7 1018.4 15.4
2014-Aug-19 16:00N 49°48' W 141°25'0 0.0 1018.7 15.4
2014-Aug-19 15:00N 49°48' W 141°25'2 0.8 1019.4 15.4
2014-Aug-19 13:00N 49°49' W 141°27'1 0.8 1019.5 15.4
2014-Aug-19 12:00N 49°49' W 141°28'0 0.2 1019.5 15.4
2014-Aug-19 10:00N 49°48' W 141°28'0 0.0 1019.9 15.4
2014-Aug-19 08:00N 49°48' W 141°28'1 0.8 1020.1 15.4
2014-Aug-19 07:00N 49°48' W 141°29'0 0.0 1020.1 15.4
2014-Aug-19 06:00N 49°48' W 141°29'1 0.3 1020.1 15.4
2014-Aug-19 04:00N 49°47' W 141°28'   1019.9 15.4

Dump ship's entire track history